createdAt,value
2022-08-26T00:00:07.594Z,63.95
2022-08-26T00:01:07.159Z,63.95
2022-08-26T00:02:07.436Z,63.95
2022-08-26T00:03:07.506Z,64.04
2022-08-26T00:04:07.471Z,63.95
2022-08-26T00:05:07.423Z,63.95
2022-08-26T00:06:07.496Z,63.95
2022-08-26T00:07:07.594Z,64.04
2022-08-26T00:08:07.699Z,63.95
2022-08-26T00:09:08.163Z,63.84
2022-08-26T00:10:07.831Z,63.95
2022-08-26T00:11:07.861Z,63.95
2022-08-26T00:12:08.012Z,63.95
2022-08-26T00:13:08.687Z,63.95
2022-08-26T00:14:08.122Z,63.95
2022-08-26T00:15:08.206Z,63.95
2022-08-26T00:16:08.335Z,63.95
2022-08-26T00:17:08.730Z,63.95
2022-08-26T00:18:12.403Z,63.84
2022-08-26T00:19:08.558Z,63.84
2022-08-26T00:20:08.649Z,63.84
2022-08-26T00:21:08.680Z,63.95
2022-08-26T00:22:08.781Z,63.95
2022-08-26T00:23:09.010Z,64.04
2022-08-26T00:24:08.945Z,64.04
2022-08-26T00:25:09.121Z,64.04
2022-08-26T00:26:09.094Z,64.04
2022-08-26T00:27:09.203Z,64.04
2022-08-26T00:28:09.266Z,64.04
2022-08-26T00:29:09.521Z,64.04
2022-08-26T00:30:09.449Z,64.04
2022-08-26T00:31:10.948Z,64.04
2022-08-26T00:32:09.642Z,64.04
2022-08-26T00:33:09.957Z,64.04
2022-08-26T00:34:09.791Z,63.95
2022-08-26T00:35:09.855Z,63.95
2022-08-26T00:36:19.954Z,63.84
2022-08-26T00:37:13.402Z,63.84
2022-08-26T00:38:10.130Z,63.95
2022-08-26T00:39:10.218Z,63.84
2022-08-26T00:40:10.317Z,63.87
2022-08-26T00:41:10.398Z,63.98
2022-08-26T00:42:10.517Z,63.98
2022-08-26T00:43:10.651Z,63.98
2022-08-26T00:44:10.675Z,64.07
2022-08-26T00:45:11.626Z,64.07
2022-08-26T00:46:10.841Z,64.07
2022-08-26T00:47:10.934Z,63.98
2022-08-26T00:48:10.969Z,63.98
2022-08-26T00:49:11.991Z,63.98
2022-08-26T00:50:11.124Z,63.98
2022-08-26T00:51:11.250Z,63.98
2022-08-26T00:52:12.111Z,63.98
2022-08-26T00:53:11.356Z,63.98
2022-08-26T00:54:11.451Z,63.98
2022-08-26T00:55:11.537Z,63.98
2022-08-26T00:56:11.618Z,63.98
2022-08-26T00:57:16.458Z,63.98
2022-08-26T00:58:11.772Z,63.98
2022-08-26T00:59:11.872Z,63.98
2022-08-26T01:00:11.955Z,64.07
2022-08-26T01:01:12.061Z,64.07
2022-08-26T01:02:20.046Z,64.07
2022-08-26T01:03:12.792Z,64.07
2022-08-26T01:04:12.269Z,64.18
2022-08-26T01:05:12.353Z,64.07
2022-08-26T01:06:13.021Z,64.07
2022-08-26T01:07:12.514Z,64.18
2022-08-26T01:08:12.584Z,64.18
2022-08-26T01:09:12.670Z,64.18
2022-08-26T01:10:12.747Z,64.18
2022-08-26T01:11:12.816Z,64.18
2022-08-26T01:12:12.934Z,64.28
2022-08-26T01:13:12.983Z,64.28
2022-08-26T01:14:14.170Z,64.28
2022-08-26T01:15:13.161Z,64.28
2022-08-26T01:16:13.285Z,64.28
2022-08-26T01:17:13.351Z,64.28
2022-08-26T01:18:13.436Z,64.40
2022-08-26T01:19:13.517Z,64.40
2022-08-26T01:20:13.594Z,64.51
2022-08-26T01:21:13.714Z,64.51
2022-08-26T01:22:13.785Z,64.40
2022-08-26T01:23:13.867Z,64.40
2022-08-26T01:24:14.098Z,64.31
2022-08-26T01:25:14.032Z,64.40
2022-08-26T01:26:19.576Z,64.40
2022-08-26T01:27:14.217Z,64.40
2022-08-26T01:28:14.264Z,64.40
2022-08-26T01:29:14.361Z,64.40
2022-08-26T01:30:14.449Z,64.40
2022-08-26T01:31:14.571Z,64.31
2022-08-26T01:32:14.634Z,64.31
2022-08-26T01:33:14.703Z,64.31
2022-08-26T01:34:14.779Z,64.40
2022-08-26T01:35:14.871Z,64.31
2022-08-26T01:36:14.939Z,64.40
2022-08-26T01:37:15.773Z,64.31
2022-08-26T01:38:15.115Z,64.31
2022-08-26T01:39:15.152Z,64.31
2022-08-26T01:40:15.323Z,64.31
2022-08-26T01:41:19.684Z,64.31
2022-08-26T01:42:15.440Z,64.31
2022-08-26T01:43:15.470Z,64.31
2022-08-26T01:44:15.583Z,64.40
2022-08-26T01:45:15.662Z,64.40
2022-08-26T01:46:15.782Z,64.51
2022-08-26T01:47:15.814Z,64.40
2022-08-26T01:48:15.899Z,64.40
2022-08-26T01:49:15.981Z,64.40
2022-08-26T01:50:27.494Z,64.40
2022-08-26T01:51:16.140Z,64.40
2022-08-26T01:52:16.232Z,64.43
2022-08-26T01:53:16.326Z,64.54
2022-08-26T01:54:16.360Z,64.54
2022-08-26T01:55:32.045Z,64.54
2022-08-26T01:56:16.545Z,64.54
2022-08-26T01:57:16.648Z,64.64
2022-08-26T01:58:16.726Z,64.64
2022-08-26T01:59:16.800Z,64.64
2022-08-26T02:00:16.903Z,64.64
2022-08-26T02:01:17.038Z,64.54
2022-08-26T02:02:17.087Z,64.54
2022-08-26T02:03:17.365Z,64.64
2022-08-26T02:04:17.324Z,64.64
2022-08-26T02:05:17.314Z,64.54
2022-08-26T02:06:17.389Z,64.54
2022-08-26T02:07:17.481Z,64.54
2022-08-26T02:08:24.441Z,64.54
2022-08-26T02:09:17.641Z,64.54
2022-08-26T02:10:17.679Z,64.64
2022-08-26T02:11:18.399Z,64.54
2022-08-26T02:12:17.820Z,64.54
2022-08-26T02:13:17.903Z,64.54
2022-08-26T02:14:17.970Z,64.54
2022-08-26T02:15:18.059Z,64.43
2022-08-26T02:16:18.194Z,64.43
2022-08-26T02:17:18.239Z,64.24
2022-08-26T02:18:18.302Z,64.27
2022-08-26T02:19:18.374Z,64.27
2022-08-26T02:20:18.481Z,64.17
2022-08-26T02:21:18.524Z,64.27
2022-08-26T02:22:18.612Z,64.17
2022-08-26T02:23:18.688Z,64.17
2022-08-26T02:24:18.768Z,64.17
2022-08-26T02:25:18.837Z,64.27
2022-08-26T02:26:19.307Z,64.27
2022-08-26T02:27:19.042Z,64.27
2022-08-26T02:28:19.749Z,64.27
2022-08-26T02:29:19.166Z,64.27
2022-08-26T02:30:19.251Z,64.27
2022-08-26T02:31:19.364Z,64.27
2022-08-26T02:32:19.420Z,64.17
2022-08-26T02:33:19.463Z,64.27
2022-08-26T02:34:19.534Z,64.30
2022-08-26T02:35:20.155Z,64.30
2022-08-26T02:36:19.701Z,64.20
2022-08-26T02:37:19.816Z,64.20
2022-08-26T02:38:19.865Z,64.30
2022-08-26T02:39:22.390Z,64.30
2022-08-26T02:40:20.191Z,64.40
2022-08-26T02:41:20.101Z,64.40
2022-08-26T02:42:20.211Z,64.40
2022-08-26T02:43:31.218Z,64.40
2022-08-26T02:44:20.327Z,64.40
2022-08-26T02:45:23.277Z,64.40
2022-08-26T02:46:21.428Z,64.30
2022-08-26T02:47:20.615Z,64.30
2022-08-26T02:48:20.667Z,64.30
2022-08-26T02:49:20.751Z,64.30
2022-08-26T02:50:20.866Z,64.40
2022-08-26T02:51:20.930Z,64.40
2022-08-26T02:52:21.018Z,64.40
2022-08-26T02:53:25.248Z,64.30
2022-08-26T02:54:21.191Z,64.30
2022-08-26T02:55:21.267Z,64.40
2022-08-26T02:56:21.337Z,64.30
2022-08-26T02:57:22.150Z,64.40
2022-08-26T02:58:21.540Z,64.40
2022-08-26T02:59:24.391Z,64.40
2022-08-26T03:00:21.709Z,64.40
2022-08-26T03:01:21.849Z,64.40
2022-08-26T03:02:21.929Z,64.40
2022-08-26T03:03:22.470Z,64.40
2022-08-26T03:04:21.994Z,64.40
2022-08-26T03:05:22.092Z,64.40
2022-08-26T03:06:22.160Z,64.30
2022-08-26T03:07:22.207Z,64.30
2022-08-26T03:08:22.313Z,64.40
2022-08-26T03:09:22.363Z,64.40
2022-08-26T03:10:22.430Z,64.40
2022-08-26T03:11:22.500Z,64.50
2022-08-26T03:12:22.604Z,64.53
2022-08-26T03:13:22.647Z,64.63
2022-08-26T03:14:22.708Z,64.63
2022-08-26T03:15:22.781Z,64.63
2022-08-26T03:16:22.923Z,64.63
2022-08-26T03:17:22.958Z,64.63
2022-08-26T03:18:23.025Z,64.63
2022-08-26T03:19:23.105Z,64.73
2022-08-26T03:20:23.188Z,64.73
2022-08-26T03:21:23.258Z,64.83
2022-08-26T03:22:23.364Z,64.83
2022-08-26T03:23:23.413Z,64.83
2022-08-26T03:24:23.505Z,64.93
2022-08-26T03:25:23.588Z,64.93
2022-08-26T03:26:23.664Z,64.93
2022-08-26T03:27:23.746Z,64.93
2022-08-26T03:28:23.805Z,64.93
2022-08-26T03:29:23.938Z,64.93
2022-08-26T03:30:23.979Z,65.03
2022-08-26T03:31:24.056Z,65.03
2022-08-26T03:32:24.150Z,65.03
2022-08-26T03:33:24.187Z,65.03
2022-08-26T03:34:24.276Z,65.03
2022-08-26T03:35:24.365Z,65.13
2022-08-26T03:36:24.436Z,65.13
2022-08-26T03:37:24.521Z,65.13
2022-08-26T03:38:24.594Z,65.23
2022-08-26T03:39:24.676Z,65.23
2022-08-26T03:40:24.872Z,65.23
2022-08-26T03:41:24.832Z,65.23
2022-08-26T03:42:24.924Z,65.26
2022-08-26T03:43:24.983Z,65.26
2022-08-26T03:44:25.068Z,65.36
2022-08-26T03:45:25.144Z,65.36
2022-08-26T03:46:25.292Z,65.36
2022-08-26T03:47:25.348Z,65.47
2022-08-26T03:48:25.431Z,65.47
2022-08-26T03:49:25.513Z,65.56
2022-08-26T03:50:25.608Z,65.56
2022-08-26T03:51:25.698Z,65.67
2022-08-26T03:52:25.790Z,65.77
2022-08-26T03:53:25.859Z,65.77
2022-08-26T03:54:25.944Z,65.87
2022-08-26T03:55:26.008Z,65.87
2022-08-26T03:56:26.135Z,65.97
2022-08-26T03:57:26.218Z,65.97
2022-08-26T03:58:26.289Z,66.07
2022-08-26T03:59:26.363Z,66.07
2022-08-26T04:00:26.460Z,66.07
2022-08-26T04:01:26.565Z,65.97
2022-08-26T04:02:26.729Z,65.97
2022-08-26T04:03:26.785Z,65.97
2022-08-26T04:04:26.803Z,65.87
2022-08-26T04:05:26.879Z,65.87
2022-08-26T04:06:26.961Z,65.87
2022-08-26T04:07:27.056Z,65.77
2022-08-26T04:08:28.099Z,65.77
2022-08-26T04:09:27.189Z,65.77
2022-08-26T04:10:29.110Z,65.77
2022-08-26T04:11:27.420Z,65.77
2022-08-26T04:12:27.575Z,65.77
2022-08-26T04:13:27.576Z,65.77
2022-08-26T04:14:27.650Z,65.67
2022-08-26T04:15:27.724Z,65.67
2022-08-26T04:16:27.925Z,65.67
2022-08-26T04:17:27.912Z,65.67
2022-08-26T04:18:31.454Z,65.77
2022-08-26T04:19:28.074Z,65.77
2022-08-26T04:20:28.203Z,65.77
2022-08-26T04:21:28.214Z,65.67
2022-08-26T04:22:28.339Z,65.56
2022-08-26T04:23:28.448Z,65.67
2022-08-26T04:24:28.472Z,65.67
2022-08-26T04:25:28.549Z,65.67
2022-08-26T04:26:28.634Z,65.67
2022-08-26T04:27:28.720Z,65.67
2022-08-26T04:28:28.796Z,65.67
2022-08-26T04:29:28.873Z,65.67
2022-08-26T04:30:28.962Z,65.67
2022-08-26T04:31:29.054Z,65.70
2022-08-26T04:32:29.166Z,65.67
2022-08-26T04:33:33.091Z,65.80
2022-08-26T04:34:29.267Z,65.80
2022-08-26T04:35:29.344Z,65.90
2022-08-26T04:36:29.460Z,65.90
2022-08-26T04:37:29.513Z,66.00
2022-08-26T04:38:29.596Z,66.00
2022-08-26T04:39:29.698Z,66.10
2022-08-26T04:40:29.820Z,66.10
2022-08-26T04:41:29.848Z,66.10
2022-08-26T04:42:29.949Z,66.20
2022-08-26T04:43:30.032Z,66.30
2022-08-26T04:44:30.135Z,66.30
2022-08-26T04:45:30.186Z,66.30
2022-08-26T04:46:30.317Z,66.40
2022-08-26T04:47:32.303Z,66.50
2022-08-26T04:48:30.428Z,66.50
2022-08-26T04:49:35.533Z,66.50
2022-08-26T04:50:30.591Z,66.60
2022-08-26T04:51:30.673Z,66.60
2022-08-26T04:52:30.957Z,66.60
2022-08-26T04:53:30.837Z,66.60
2022-08-26T04:54:30.906Z,66.60
2022-08-26T04:55:39.657Z,66.60
2022-08-26T04:56:31.082Z,66.71
2022-08-26T04:57:31.189Z,66.71
2022-08-26T04:58:31.210Z,66.71
2022-08-26T04:59:32.595Z,66.80
2022-08-26T05:00:31.393Z,66.80
2022-08-26T05:01:31.569Z,66.80
2022-08-26T05:02:31.552Z,66.80
2022-08-26T05:03:31.607Z,66.91
2022-08-26T05:04:31.693Z,66.91
2022-08-26T05:05:31.762Z,66.87
2022-08-26T05:06:35.556Z,66.87
2022-08-26T05:07:31.963Z,66.87
2022-08-26T05:08:32.010Z,66.87
2022-08-26T05:09:32.076Z,66.91
2022-08-26T05:10:32.199Z,66.91
2022-08-26T05:11:32.235Z,66.97
2022-08-26T05:12:32.329Z,66.97
2022-08-26T05:13:32.413Z,66.97
2022-08-26T05:14:32.471Z,67.07
2022-08-26T05:15:32.663Z,67.07
2022-08-26T05:16:32.672Z,67.07
2022-08-26T05:17:32.791Z,67.07
2022-08-26T05:18:32.821Z,67.18
2022-08-26T05:19:32.901Z,67.18
2022-08-26T05:20:32.978Z,67.27
2022-08-26T05:21:33.045Z,67.38
2022-08-26T05:22:33.148Z,67.38
2022-08-26T05:23:33.196Z,67.47
2022-08-26T05:24:33.274Z,67.47
2022-08-26T05:25:33.340Z,67.58
2022-08-26T05:26:33.424Z,67.58
2022-08-26T05:27:33.503Z,67.68
2022-08-26T05:28:33.595Z,67.68
2022-08-26T05:29:33.666Z,67.78
2022-08-26T05:30:33.759Z,67.88
2022-08-26T05:31:33.880Z,67.88
2022-08-26T05:32:33.922Z,67.98
2022-08-26T05:33:34.006Z,67.98
2022-08-26T05:34:34.088Z,68.08
2022-08-26T05:35:34.197Z,68.18
2022-08-26T05:36:34.270Z,68.18
2022-08-26T05:37:34.379Z,68.28
2022-08-26T05:38:34.471Z,68.28
2022-08-26T05:39:34.535Z,68.38
2022-08-26T05:40:34.670Z,68.38
2022-08-26T05:41:36.496Z,68.48
2022-08-26T05:42:34.802Z,68.48
2022-08-26T05:43:34.868Z,68.48
2022-08-26T05:44:35.887Z,68.48
2022-08-26T05:45:35.014Z,68.59
2022-08-26T05:46:35.183Z,68.59
2022-08-26T05:47:35.176Z,68.59
2022-08-26T05:48:35.275Z,68.59
2022-08-26T05:49:35.345Z,68.68
2022-08-26T05:50:35.422Z,68.68
2022-08-26T05:51:35.495Z,68.68
2022-08-26T05:52:35.581Z,68.68
2022-08-26T05:53:35.626Z,68.78
2022-08-26T05:54:35.763Z,68.78
2022-08-26T05:55:35.812Z,68.78
2022-08-26T05:56:35.900Z,68.88
2022-08-26T05:57:40.404Z,68.88
2022-08-26T05:58:36.067Z,68.88
2022-08-26T05:59:36.159Z,68.88
2022-08-26T06:00:36.220Z,68.98
2022-08-26T06:01:36.299Z,68.98
2022-08-26T06:02:36.464Z,68.98
2022-08-26T06:03:36.449Z,69.09
2022-08-26T06:04:36.532Z,69.09
2022-08-26T06:05:39.198Z,69.18
2022-08-26T06:06:36.764Z,69.29
2022-08-26T06:07:36.828Z,69.29
2022-08-26T06:08:36.913Z,69.38
2022-08-26T06:09:37.015Z,69.38
2022-08-26T06:10:37.055Z,69.38
2022-08-26T06:11:37.100Z,69.49
2022-08-26T06:12:37.213Z,69.49
2022-08-26T06:13:37.268Z,69.49
2022-08-26T06:14:37.318Z,69.45
2022-08-26T06:15:37.545Z,69.45
2022-08-26T06:16:37.486Z,69.45
2022-08-26T06:17:37.593Z,69.45
2022-08-26T06:18:37.685Z,69.45
2022-08-26T06:19:37.740Z,69.45
2022-08-26T06:20:37.832Z,69.45
2022-08-26T06:21:37.866Z,69.45
2022-08-26T06:22:37.969Z,69.45
2022-08-26T06:23:38.034Z,69.45
2022-08-26T06:24:38.157Z,69.35
2022-08-26T06:25:38.249Z,69.35
2022-08-26T06:26:38.349Z,69.45
2022-08-26T06:27:38.416Z,69.45
2022-08-26T06:28:38.499Z,69.56
2022-08-26T06:29:38.559Z,69.56
2022-08-26T06:30:38.637Z,69.56
2022-08-26T06:31:40.058Z,69.65
2022-08-26T06:32:38.837Z,69.65
2022-08-26T06:33:38.917Z,69.76
2022-08-26T06:34:39.013Z,69.76
2022-08-26T06:35:39.089Z,69.76
2022-08-26T06:36:39.199Z,69.76
2022-08-26T06:37:39.289Z,69.85
2022-08-26T06:38:39.328Z,69.85
2022-08-26T06:39:41.164Z,69.85
2022-08-26T06:40:39.516Z,69.96
2022-08-26T06:41:43.254Z,69.96
2022-08-26T06:42:39.687Z,70.06
2022-08-26T06:43:39.784Z,70.06
2022-08-26T06:44:40.933Z,70.06
2022-08-26T06:45:39.942Z,70.16
2022-08-26T06:46:40.035Z,70.16
2022-08-26T06:47:40.112Z,70.16
2022-08-26T06:48:40.172Z,70.26
2022-08-26T06:49:40.244Z,70.16
2022-08-26T06:50:40.311Z,70.16
2022-08-26T06:51:40.396Z,70.06
2022-08-26T06:52:40.496Z,70.06
2022-08-26T06:53:41.146Z,70.16
2022-08-26T06:54:40.624Z,70.26
2022-08-26T06:55:40.715Z,70.16
2022-08-26T06:56:40.792Z,70.16
2022-08-26T06:57:41.155Z,70.16
2022-08-26T06:58:40.948Z,70.16
2022-08-26T06:59:41.013Z,70.16
2022-08-26T07:00:41.601Z,70.16
2022-08-26T07:01:42.975Z,70.16
2022-08-26T07:02:41.366Z,70.16
2022-08-26T07:03:41.350Z,70.26
2022-08-26T07:04:41.400Z,70.26
2022-08-26T07:05:41.474Z,70.26
2022-08-26T07:06:41.565Z,70.26
2022-08-26T07:07:41.668Z,70.36
2022-08-26T07:08:41.722Z,70.36
2022-08-26T07:09:41.812Z,70.26
2022-08-26T07:10:41.910Z,70.36
2022-08-26T07:11:41.962Z,70.26
2022-08-26T07:12:42.074Z,70.23
2022-08-26T07:13:42.114Z,70.23
2022-08-26T07:14:47.338Z,70.23
2022-08-26T07:15:42.304Z,70.23
2022-08-26T07:16:42.342Z,70.32
2022-08-26T07:17:42.434Z,70.32
2022-08-26T07:18:42.481Z,70.32
2022-08-26T07:19:42.572Z,70.43
2022-08-26T07:20:43.050Z,70.43
2022-08-26T07:21:42.722Z,70.53
2022-08-26T07:22:42.783Z,70.53
2022-08-26T07:23:42.862Z,70.53
2022-08-26T07:24:42.928Z,70.53
2022-08-26T07:25:42.998Z,70.43
2022-08-26T07:26:43.280Z,70.43
2022-08-26T07:27:43.166Z,70.43
2022-08-26T07:28:43.245Z,70.43
2022-08-26T07:29:43.346Z,70.43
2022-08-26T07:30:43.464Z,70.43
2022-08-26T07:31:43.572Z,70.43
2022-08-26T07:32:43.592Z,70.43
2022-08-26T07:33:43.628Z,70.39
2022-08-26T07:34:43.724Z,70.39
2022-08-26T07:35:43.836Z,70.39
2022-08-26T07:36:43.876Z,70.29
2022-08-26T07:37:44.017Z,70.39
2022-08-26T07:38:44.081Z,70.50
2022-08-26T07:39:44.143Z,70.59
2022-08-26T07:40:44.196Z,70.70
2022-08-26T07:41:44.306Z,70.70
2022-08-26T07:42:44.383Z,70.70
2022-08-26T07:43:44.451Z,70.79
2022-08-26T07:44:44.540Z,70.89
2022-08-26T07:45:44.588Z,71.00
2022-08-26T07:46:44.659Z,71.20
2022-08-26T07:47:44.760Z,71.30
2022-08-26T07:48:46.104Z,71.20
2022-08-26T07:49:44.974Z,71.20
2022-08-26T07:50:49.490Z,71.09
2022-08-26T07:51:45.090Z,71.09
2022-08-26T07:52:45.198Z,71.00
2022-08-26T07:53:45.257Z,70.89
2022-08-26T07:54:45.351Z,70.79
2022-08-26T07:55:45.452Z,70.76
2022-08-26T07:56:45.530Z,70.76
2022-08-26T07:57:45.640Z,70.76
2022-08-26T07:58:49.016Z,70.76
2022-08-26T07:59:45.779Z,70.86
2022-08-26T08:00:45.831Z,70.86
2022-08-26T08:01:45.966Z,70.86
2022-08-26T08:02:46.043Z,70.96
2022-08-26T08:03:46.098Z,70.96
2022-08-26T08:04:46.210Z,70.96
2022-08-26T08:05:46.346Z,71.06
2022-08-26T08:06:46.343Z,71.16
2022-08-26T08:07:46.491Z,71.26
2022-08-26T08:08:46.530Z,71.36
2022-08-26T08:09:46.612Z,71.36
2022-08-26T08:10:48.843Z,71.26
2022-08-26T08:11:46.757Z,71.26
2022-08-26T08:12:46.865Z,71.16
2022-08-26T08:13:46.955Z,71.16
2022-08-26T08:14:47.030Z,71.06
2022-08-26T08:15:47.141Z,71.06
2022-08-26T08:16:47.306Z,71.06
2022-08-26T08:17:47.313Z,71.06
2022-08-26T08:18:47.401Z,71.06
2022-08-26T08:19:47.468Z,71.03
2022-08-26T08:20:59.155Z,71.13
2022-08-26T08:21:47.690Z,71.03
2022-08-26T08:22:47.744Z,70.93
2022-08-26T08:23:47.829Z,70.93
2022-08-26T08:24:49.700Z,71.03
2022-08-26T08:25:48.010Z,71.03
2022-08-26T08:26:48.103Z,71.03
2022-08-26T08:27:48.171Z,71.03
2022-08-26T08:28:48.245Z,71.03
2022-08-26T08:29:48.321Z,71.03
2022-08-26T08:30:48.453Z,71.13
2022-08-26T08:31:56.548Z,71.23
2022-08-26T08:32:48.598Z,71.23
2022-08-26T08:33:48.637Z,71.23
2022-08-26T08:34:48.710Z,71.13
2022-08-26T08:35:48.815Z,71.03
2022-08-26T08:36:48.849Z,71.00
2022-08-26T08:37:48.953Z,70.89
2022-08-26T08:38:49.026Z,70.89
2022-08-26T08:39:49.271Z,70.79
2022-08-26T08:40:49.197Z,70.79
2022-08-26T08:41:49.255Z,70.89
2022-08-26T08:42:49.385Z,71.20
2022-08-26T08:43:49.395Z,71.20
2022-08-26T08:44:52.160Z,71.30
2022-08-26T08:45:49.781Z,71.30
2022-08-26T08:46:49.645Z,71.20
2022-08-26T08:47:49.712Z,71.30
2022-08-26T08:48:49.772Z,71.46
2022-08-26T08:49:49.888Z,71.46
2022-08-26T08:50:49.951Z,71.66
2022-08-26T08:51:50.046Z,71.66
2022-08-26T08:52:50.166Z,71.77
2022-08-26T08:53:50.205Z,71.86
2022-08-26T08:54:50.281Z,71.56
2022-08-26T08:55:50.386Z,71.73
2022-08-26T08:56:50.428Z,71.93
2022-08-26T08:58:02.447Z,71.93
2022-08-26T08:58:50.613Z,71.83
2022-08-26T08:59:50.701Z,71.83
2022-08-26T09:00:50.809Z,71.73
2022-08-26T09:01:52.286Z,71.63
2022-08-26T09:02:50.950Z,71.50
2022-08-26T09:03:51.006Z,71.59
2022-08-26T09:04:51.095Z,71.69
2022-08-26T09:05:51.244Z,71.69
2022-08-26T09:06:51.296Z,71.80
2022-08-26T09:07:51.339Z,71.69
2022-08-26T09:08:51.409Z,71.69
2022-08-26T09:09:51.497Z,71.69
2022-08-26T09:10:51.585Z,71.80
2022-08-26T09:11:51.651Z,71.86
2022-08-26T09:12:51.730Z,71.86
2022-08-26T09:13:51.825Z,71.76
2022-08-26T09:14:52.492Z,71.56
2022-08-26T09:15:52.013Z,71.56
2022-08-26T09:16:52.117Z,71.66
2022-08-26T09:17:52.174Z,71.76
2022-08-26T09:18:52.250Z,71.56
2022-08-26T09:19:52.332Z,71.46
2022-08-26T09:20:52.438Z,71.36
2022-08-26T09:21:53.505Z,71.23
2022-08-26T09:22:52.555Z,71.23
2022-08-26T09:23:52.636Z,71.33
2022-08-26T09:24:52.709Z,71.42
2022-08-26T09:26:52.847Z,71.12
2022-08-26T09:27:52.936Z,70.92
2022-08-26T09:28:53.019Z,70.83
2022-08-26T09:29:53.098Z,70.83
2022-08-26T09:30:53.260Z,70.62
2022-08-26T09:31:53.274Z,70.62
2022-08-26T09:32:55.953Z,70.62
2022-08-26T09:33:53.481Z,70.69
2022-08-26T09:34:53.522Z,70.79
2022-08-26T09:35:53.647Z,70.89
2022-08-26T09:36:53.689Z,71.09
2022-08-26T09:37:53.788Z,71.29
2022-08-26T09:38:53.856Z,71.39
2022-08-26T09:39:53.973Z,71.39
2022-08-26T09:40:58.927Z,71.49
2022-08-26T09:41:54.121Z,71.69
2022-08-26T09:42:54.222Z,71.69
2022-08-26T09:43:54.279Z,71.59
2022-08-26T09:44:54.363Z,71.59
2022-08-26T09:45:58.471Z,71.39
2022-08-26T09:46:54.502Z,71.39
2022-08-26T09:47:54.600Z,71.46
2022-08-26T09:48:54.744Z,71.56
2022-08-26T09:49:54.782Z,71.66
2022-08-26T09:50:54.944Z,71.46
2022-08-26T09:51:54.977Z,71.36
2022-08-26T09:52:55.077Z,71.26
2022-08-26T09:53:55.164Z,71.26
2022-08-26T09:54:55.251Z,71.06
2022-08-26T09:55:55.384Z,70.96
2022-08-26T09:56:55.379Z,70.86
2022-08-26T09:57:55.456Z,70.76
2022-08-26T09:58:55.554Z,70.86
2022-08-26T09:59:55.625Z,70.96
2022-08-26T10:00:55.786Z,71.06
2022-08-26T10:01:55.872Z,71.06
2022-08-26T10:02:57.978Z,71.16
2022-08-26T10:03:56.064Z,71.16
2022-08-26T10:04:56.020Z,70.96
2022-08-26T10:05:56.176Z,70.83
2022-08-26T10:06:56.286Z,70.62
2022-08-26T10:07:56.295Z,70.42
2022-08-26T10:08:56.351Z,70.12
2022-08-26T10:09:56.438Z,69.62
2022-08-26T10:10:56.550Z,69.32
2022-08-26T10:11:56.583Z,69.13
2022-08-26T10:12:56.643Z,69.13
2022-08-26T10:13:56.730Z,69.23
2022-08-26T10:14:56.822Z,69.13
2022-08-26T10:15:56.922Z,69.02
2022-08-26T10:16:57.037Z,68.93
2022-08-26T10:17:57.062Z,68.79
2022-08-26T10:19:00.154Z,68.89
2022-08-26T10:19:57.773Z,68.79
2022-08-26T10:20:57.369Z,68.70
2022-08-26T10:21:57.473Z,68.59
2022-08-26T10:22:57.478Z,68.29
2022-08-26T10:23:57.566Z,68.29
2022-08-26T10:24:57.645Z,68.29
2022-08-26T10:33:18.121Z,68.29
2022-08-26T10:37:55.083Z,68.93
2022-08-26T10:38:56.248Z,68.93
2022-08-26T10:41:33.738Z,69.13
2022-08-26T10:44:26.416Z,68.93
2022-08-26T10:45:27.463Z,68.93
2022-08-26T10:46:27.660Z,69.02
2022-08-26T10:47:27.538Z,68.89
2022-08-26T10:48:27.567Z,68.89
2022-08-26T10:49:27.657Z,68.79
2022-08-26T10:50:27.719Z,68.59
2022-08-26T10:51:27.793Z,68.59
2022-08-26T10:52:28.495Z,68.26
2022-08-26T10:53:27.991Z,68.46
2022-08-26T10:54:28.056Z,68.36
2022-08-26T10:55:28.140Z,68.36
2022-08-26T10:56:28.248Z,68.53
2022-08-26T10:57:28.366Z,68.63
2022-08-26T10:58:28.448Z,68.53
2022-08-26T10:59:29.419Z,68.53
2022-08-26T11:00:28.606Z,68.63
2022-08-26T11:01:28.741Z,68.83
2022-08-26T11:02:28.783Z,68.73
2022-08-26T11:03:29.254Z,68.40
2022-08-26T11:07:53.748Z,68.73
2022-08-26T11:28:33.636Z,67.23
2022-08-26T11:29:32.767Z,67.13
2022-08-26T11:30:32.877Z,67.00
2022-08-26T11:31:32.896Z,67.10
2022-08-26T11:32:33.011Z,66.90
2022-08-26T11:33:33.096Z,66.70
2022-08-26T11:37:54.553Z,66.27
2022-08-26T11:43:33.596Z,65.17
2022-08-26T11:44:34.645Z,64.87
2022-08-26T11:45:34.780Z,64.87
2022-08-26T11:46:34.820Z,64.75
2022-08-26T11:47:34.908Z,64.45
2022-08-26T11:48:34.995Z,64.25
2022-08-26T11:49:35.063Z,63.75
2022-08-26T11:50:35.185Z,62.52
2022-08-26T11:51:40.054Z,61.93
2022-08-26T11:52:35.341Z,61.53
2022-08-26T11:53:35.379Z,61.40
2022-08-26T11:54:35.930Z,60.90
2022-08-26T11:55:35.589Z,61.00
2022-08-26T11:56:35.675Z,60.77
2022-08-26T11:57:35.691Z,60.68
2022-08-26T11:58:35.774Z,60.97
2022-08-26T12:00:35.976Z,59.95
2022-08-26T12:01:36.197Z,59.45
2022-08-26T12:02:36.090Z,59.35
2022-08-26T12:03:36.374Z,56.84
2022-08-26T12:04:36.389Z,57.14
2022-08-26T12:05:36.364Z,56.74
2022-08-26T12:06:38.951Z,56.94
2022-08-26T12:07:36.534Z,57.41
2022-08-26T12:08:36.610Z,57.11
2022-08-26T12:09:36.726Z,56.21
2022-08-26T12:10:36.834Z,55.91
2022-08-26T12:11:36.875Z,56.19
2022-08-26T12:12:36.976Z,56.09
2022-08-26T12:13:37.064Z,56.29
2022-08-26T12:14:37.157Z,56.38
2022-08-26T12:15:37.426Z,56.19
2022-08-26T12:16:37.364Z,55.40
2022-08-26T12:17:37.395Z,52.81
2022-08-26T12:18:37.482Z,52.79
2022-08-26T12:19:37.542Z,52.59
2022-08-26T12:20:37.676Z,52.69
2022-08-26T12:21:37.699Z,53.28
2022-08-26T12:22:37.806Z,53.68
2022-08-26T12:23:37.888Z,53.78
2022-08-26T12:24:37.981Z,53.38
2022-08-26T12:25:38.048Z,52.39
2022-08-26T12:26:38.144Z,51.79
2022-08-26T12:27:38.204Z,51.60
2022-08-26T12:28:38.308Z,51.67
2022-08-26T12:29:38.351Z,52.37
2022-08-26T12:30:38.471Z,52.66
2022-08-26T12:31:38.531Z,52.96
2022-08-26T12:32:38.564Z,52.76
2022-08-26T12:33:38.639Z,53.16
2022-08-26T12:34:38.743Z,53.56
2022-08-26T12:35:38.787Z,53.53
2022-08-26T12:36:38.866Z,53.33
2022-08-26T12:37:38.942Z,52.64
2022-08-26T12:38:39.009Z,52.73
2022-08-26T12:39:39.084Z,52.34
2022-08-26T12:40:39.195Z,52.34
2022-08-26T12:41:39.261Z,51.45
2022-08-26T12:42:39.346Z,51.65
2022-08-26T12:43:39.425Z,52.04
2022-08-26T12:44:39.514Z,52.14
2022-08-26T12:45:39.623Z,51.25
2022-08-26T12:46:39.644Z,49.34
2022-08-26T12:47:43.491Z,49.05
2022-08-26T12:48:39.797Z,48.75
2022-08-26T12:49:39.874Z,48.65
2022-08-26T12:50:39.969Z,48.94
2022-08-26T12:51:40.035Z,49.54
2022-08-26T12:52:40.098Z,49.74
2022-08-26T12:53:40.149Z,49.64
2022-08-26T12:54:40.229Z,49.84
2022-08-26T12:55:40.371Z,49.94
2022-08-26T12:56:40.395Z,50.43
2022-08-26T12:57:40.463Z,50.43
2022-08-26T12:58:40.549Z,50.13
2022-08-26T12:59:40.621Z,49.54
2022-08-26T13:00:41.047Z,49.34
2022-08-26T13:01:40.926Z,49.44
2022-08-26T13:02:40.866Z,49.84
2022-08-26T13:03:40.938Z,50.04
2022-08-26T13:04:41.026Z,50.43
2022-08-26T13:05:41.129Z,50.83
2022-08-26T13:06:41.196Z,50.83
2022-08-26T13:07:41.314Z,51.23
2022-08-26T13:08:41.389Z,51.23
2022-08-26T13:09:41.459Z,51.62
2022-08-26T13:10:41.561Z,52.39
2022-08-26T13:11:41.654Z,52.59
2022-08-26T13:12:41.765Z,52.59
2022-08-26T13:13:41.806Z,52.39
2022-08-26T13:14:41.876Z,51.92
2022-08-26T13:15:41.981Z,52.02
2022-08-26T13:16:42.118Z,52.22
2022-08-26T13:17:42.139Z,52.61
2022-08-26T13:18:42.223Z,52.59
2022-08-26T13:19:42.306Z,52.69
2022-08-26T13:20:42.411Z,53.18
2022-08-26T13:21:42.513Z,52.59
2022-08-26T13:22:42.570Z,52.29
2022-08-26T13:23:42.737Z,51.70
2022-08-26T13:24:42.728Z,51.60
2022-08-26T13:25:42.814Z,51.70
2022-08-26T13:26:42.890Z,51.40
2022-08-26T13:27:42.958Z,51.70
2022-08-26T13:28:43.030Z,52.09
2022-08-26T13:29:43.109Z,51.89
2022-08-26T13:30:43.202Z,51.89
2022-08-26T13:31:43.311Z,51.60
2022-08-26T13:32:43.370Z,51.70
2022-08-26T13:33:43.477Z,51.89
2022-08-26T13:34:44.811Z,51.30
2022-08-26T13:35:43.652Z,51.28
2022-08-26T13:36:43.740Z,51.07
2022-08-26T13:37:43.854Z,50.88
2022-08-26T13:38:43.888Z,50.48
2022-08-26T13:39:43.993Z,50.18
2022-08-26T13:40:44.136Z,49.40